createdAt,value
2022-10-21T00:03:27.129Z,15.25
2022-10-21T00:08:29.110Z,15.24
2022-10-21T00:13:33.675Z,15.22
2022-10-21T00:18:37.730Z,15.17
2022-10-21T00:23:40.831Z,15.15
2022-10-21T00:28:43.446Z,15.17
2022-10-21T00:33:45.124Z,15.18
2022-10-21T00:38:48.577Z,15.18
2022-10-21T00:44:02.281Z,15.17
2022-10-21T00:49:39.624Z,15.14
2022-10-21T00:54:43.196Z,15.09
2022-10-21T00:59:49.574Z,15.07
2022-10-21T01:04:54.725Z,15.06
2022-10-21T01:09:56.497Z,15.05
2022-10-21T01:15:21.950Z,15.00
2022-10-21T01:20:41.921Z,15.01
2022-10-21T01:26:19.483Z,14.99
2022-10-21T01:31:48.138Z,14.98
2022-10-21T01:37:13.586Z,14.97
2022-10-21T01:42:20.527Z,14.89
2022-10-21T01:47:32.257Z,14.77
2022-10-21T01:52:35.049Z,14.66
2022-10-21T01:57:43.910Z,14.59
2022-10-21T02:02:49.914Z,14.53
2022-10-21T02:07:51.986Z,14.50
2022-10-21T02:12:56.965Z,14.49
2022-10-21T02:18:08.595Z,14.51
2022-10-21T02:23:15.333Z,14.52
2022-10-21T02:28:18.884Z,14.50
2022-10-21T02:33:27.890Z,14.47
2022-10-21T02:38:46.755Z,14.48
2022-10-21T02:43:59.233Z,14.50
2022-10-21T02:49:00.991Z,14.52
2022-10-21T02:54:02.713Z,14.51
2022-10-21T02:59:04.343Z,14.49
2022-10-21T03:04:07.550Z,14.48
2022-10-21T03:09:09.528Z,14.49
2022-10-21T03:14:11.594Z,14.47
2022-10-21T03:19:13.717Z,14.47
2022-10-21T03:24:27.914Z,14.46
2022-10-21T03:29:30.608Z,14.46
2022-10-21T03:34:32.240Z,14.46
2022-10-21T03:39:33.944Z,14.46
2022-10-21T03:44:36.018Z,14.48
2022-10-21T03:49:37.795Z,14.49
2022-10-21T03:54:39.483Z,14.50
2022-10-21T03:59:41.351Z,14.52
2022-10-21T04:04:42.974Z,14.52
2022-10-21T04:09:44.630Z,14.51
2022-10-21T04:14:46.238Z,14.50
2022-10-21T04:19:48.058Z,14.50
2022-10-21T04:24:49.933Z,14.50
2022-10-21T04:29:51.566Z,14.51
2022-10-21T04:34:53.329Z,14.50
2022-10-21T04:39:57.410Z,14.50
2022-10-21T04:44:59.210Z,14.49
2022-10-21T04:50:00.819Z,14.47
2022-10-21T04:55:02.592Z,14.45
2022-10-21T05:00:07.503Z,14.43
2022-10-21T05:05:10.588Z,14.42
2022-10-21T05:10:12.254Z,14.38
2022-10-21T05:15:14.647Z,14.38
2022-10-21T05:20:16.575Z,14.37
2022-10-21T05:25:18.454Z,14.37
2022-10-21T05:30:20.072Z,14.34
2022-10-21T05:35:22.105Z,14.32
2022-10-21T05:40:24.194Z,14.32
2022-10-21T05:45:27.070Z,14.34
2022-10-21T05:50:28.719Z,14.34
2022-10-21T05:55:30.466Z,14.34
2022-10-21T06:00:32.510Z,14.34
2022-10-21T06:05:35.232Z,14.35
2022-10-21T06:10:36.988Z,14.35
2022-10-21T06:15:38.647Z,14.32
2022-10-21T06:20:40.254Z,14.31
2022-10-21T06:25:44.169Z,14.31
2022-10-21T06:30:47.407Z,14.30
2022-10-21T06:35:49.261Z,14.31
2022-10-21T06:40:50.865Z,14.34
2022-10-21T06:45:58.631Z,14.32
2022-10-21T06:51:09.560Z,14.35
2022-10-21T06:56:17.189Z,14.34
2022-10-21T07:01:34.897Z,14.34
2022-10-21T07:06:43.422Z,14.34
2022-10-21T07:11:45.008Z,14.34
2022-10-21T07:16:49.076Z,14.36
2022-10-21T07:21:50.895Z,14.39
2022-10-21T07:26:52.972Z,14.42
2022-10-21T07:31:54.564Z,14.46
2022-10-21T07:36:56.335Z,14.53
2022-10-21T07:41:58.420Z,14.57
2022-10-21T07:47:00.106Z,14.60
2022-10-21T07:52:02.662Z,14.64
2022-10-21T07:57:04.350Z,14.71
2022-10-21T08:02:06.143Z,14.83
2022-10-21T08:07:10.306Z,14.92
2022-10-21T08:12:15.487Z,15.00
2022-10-21T08:17:17.539Z,15.07
2022-10-21T08:22:19.775Z,15.13
2022-10-21T08:27:21.388Z,15.22
2022-10-21T08:32:23.127Z,15.28
2022-10-21T08:37:25.756Z,15.33
2022-10-21T08:42:27.984Z,15.39
2022-10-21T08:47:45.922Z,15.44
2022-10-21T08:53:13.760Z,15.49
2022-10-21T08:58:21.823Z,15.57
2022-10-21T09:03:39.151Z,15.66
2022-10-21T09:08:57.435Z,15.77
2022-10-21T09:14:24.528Z,15.86
2022-10-21T09:19:43.501Z,15.94
2022-10-21T09:25:17.600Z,16.02
2022-10-21T09:30:24.535Z,16.12
2022-10-21T09:35:48.387Z,16.18
2022-10-21T09:40:59.299Z,16.23
2022-10-21T09:46:00.999Z,16.27
2022-10-21T09:51:14.074Z,16.30
2022-10-21T09:56:24.802Z,16.32
2022-10-21T10:01:29.362Z,16.32
2022-10-21T10:06:42.666Z,16.33
2022-10-21T10:12:02.850Z,16.32
2022-10-21T10:17:31.912Z,16.30
2022-10-21T10:22:38.906Z,16.32
2022-10-21T10:27:59.816Z,16.35
2022-10-21T10:33:14.084Z,16.40
2022-10-21T10:38:42.571Z,16.43
2022-10-21T10:43:46.351Z,16.44
2022-10-21T10:48:52.689Z,16.55
2022-10-21T10:54:06.522Z,16.62
2022-10-21T10:59:23.562Z,16.71
2022-10-21T11:10:02.037Z,16.89
2022-10-21T11:15:04.045Z,16.96
2022-10-21T11:20:15.785Z,17.06
2022-10-21T11:25:26.992Z,17.15
2022-10-21T11:30:36.967Z,17.23
2022-10-21T11:35:59.010Z,17.28
2022-10-21T11:41:31.769Z,17.32
2022-10-21T11:46:46.904Z,17.35
2022-10-21T11:51:48.568Z,17.39
2022-10-21T11:57:41.459Z,17.41
2022-10-21T12:03:23.736Z,17.44
2022-10-21T12:08:31.067Z,17.52
2022-10-21T12:13:38.084Z,17.58
2022-10-21T12:18:44.550Z,17.63
2022-10-21T12:23:54.047Z,17.65
2022-10-21T12:29:07.378Z,17.65
2022-10-21T12:34:11.498Z,17.66
2022-10-21T12:39:35.212Z,17.67
2022-10-21T12:44:38.150Z,17.71
2022-10-21T12:49:43.600Z,17.76
2022-10-21T12:54:58.249Z,17.81
2022-10-21T13:00:28.405Z,17.77
2022-10-21T13:05:36.517Z,17.74
2022-10-21T13:10:40.565Z,17.72
2022-10-21T13:15:46.241Z,17.76
2022-10-21T13:20:57.136Z,17.84
2022-10-21T13:26:12.334Z,17.94
2022-10-21T13:31:21.192Z,18.10
2022-10-21T13:41:43.448Z,18.28
2022-10-21T13:46:45.058Z,18.32
2022-10-21T13:51:47.097Z,18.38
2022-10-21T13:56:48.826Z,18.45
2022-10-21T14:01:53.346Z,18.52
2022-10-21T14:07:05.647Z,18.58
2022-10-21T14:12:18.249Z,18.61
2022-10-21T14:17:26.207Z,18.65
2022-10-21T14:22:31.093Z,18.74
2022-10-21T14:27:35.037Z,18.81
2022-10-21T14:32:37.661Z,18.88
2022-10-21T14:37:49.581Z,18.89
2022-10-21T14:42:53.322Z,18.86
2022-10-21T14:48:24.041Z,18.87
2022-10-21T14:53:27.841Z,18.82
2022-10-21T14:58:34.626Z,18.80
2022-10-21T15:03:58.156Z,18.77
2022-10-21T15:09:10.476Z,18.71
2022-10-21T15:14:21.007Z,18.55
2022-10-21T15:19:40.621Z,18.45
2022-10-21T15:24:45.144Z,18.35
2022-10-21T15:29:48.754Z,18.32
2022-10-21T15:34:52.081Z,18.23
2022-10-21T15:39:53.673Z,18.23
2022-10-21T15:44:55.340Z,18.23
2022-10-21T15:49:58.330Z,18.27
2022-10-21T15:55:00.094Z,18.30
2022-10-21T16:00:02.242Z,18.29
2022-10-21T16:05:06.390Z,18.24
2022-10-21T16:10:22.405Z,18.19
2022-10-21T16:15:25.134Z,18.16
2022-10-21T16:20:30.249Z,18.12
2022-10-21T16:25:33.486Z,18.09
2022-10-21T16:30:37.521Z,18.11
2022-10-21T16:35:39.152Z,18.11
2022-10-21T16:40:40.921Z,18.10
2022-10-21T16:45:43.998Z,18.09
2022-10-21T16:50:46.479Z,18.06
2022-10-21T16:55:48.371Z,18.02
2022-10-21T17:00:50.954Z,18.01
2022-10-21T17:05:52.679Z,17.97
2022-10-21T17:10:55.065Z,17.94
2022-10-21T17:15:56.654Z,17.91
2022-10-21T17:20:58.451Z,17.90
2022-10-21T17:26:00.194Z,17.90
2022-10-21T17:31:01.911Z,17.88
2022-10-21T17:36:03.763Z,17.86
2022-10-21T17:41:06.184Z,17.85
2022-10-21T17:46:09.932Z,17.83
2022-10-21T17:51:11.723Z,17.79
2022-10-21T17:56:13.553Z,17.73
2022-10-21T18:01:15.264Z,17.70
2022-10-21T18:06:17.088Z,17.65
2022-10-21T18:11:20.618Z,17.60
2022-10-21T18:16:23.767Z,17.54
2022-10-21T18:21:25.600Z,17.50
2022-10-21T18:26:30.716Z,17.44
2022-10-21T18:31:35.551Z,17.39
2022-10-21T18:36:37.411Z,17.34
2022-10-21T18:41:39.630Z,17.31
2022-10-21T18:46:43.086Z,17.25
2022-10-21T18:51:45.386Z,17.21
2022-10-21T18:56:48.595Z,17.18
2022-10-21T19:01:50.770Z,17.16
2022-10-21T19:06:54.734Z,17.13
2022-10-21T19:11:56.577Z,17.09
2022-10-21T19:16:58.937Z,17.07
2022-10-21T19:22:00.621Z,17.06
2022-10-21T19:27:02.306Z,17.03
2022-10-21T19:32:04.080Z,17.00
2022-10-21T19:37:06.772Z,16.97
2022-10-21T19:42:08.453Z,16.94
2022-10-21T19:47:10.183Z,16.89
2022-10-21T19:52:11.758Z,16.86
2022-10-21T19:57:13.535Z,16.83
2022-10-21T20:02:15.338Z,16.80
2022-10-21T20:07:16.981Z,16.76
2022-10-21T20:12:19.202Z,16.74
2022-10-21T20:17:20.912Z,16.71
2022-10-21T20:22:24.613Z,16.67
2022-10-21T20:27:26.725Z,16.63
2022-10-21T20:32:28.337Z,16.60
2022-10-21T20:37:30.006Z,16.55
2022-10-21T20:42:31.646Z,16.53
2022-10-21T20:47:33.234Z,16.50
2022-10-21T20:52:34.995Z,16.46
2022-10-21T20:57:40.364Z,16.44
2022-10-21T21:02:42.221Z,16.42
2022-10-21T21:07:43.853Z,16.40
2022-10-21T21:12:45.483Z,16.38
2022-10-21T21:17:51.012Z,16.36
2022-10-21T21:22:52.967Z,16.35
2022-10-21T21:27:54.563Z,16.34
2022-10-21T21:32:56.207Z,16.31
2022-10-21T21:37:58.085Z,16.29
2022-10-21T21:42:59.671Z,16.28
2022-10-21T21:48:01.438Z,16.25
2022-10-21T21:53:03.097Z,16.24
2022-10-21T21:58:05.482Z,16.22
2022-10-21T22:03:07.150Z,16.20
2022-10-21T22:08:10.101Z,16.17
2022-10-21T22:13:12.802Z,16.15
2022-10-21T22:18:14.993Z,16.13
2022-10-21T22:23:17.270Z,16.12
2022-10-21T22:28:18.936Z,16.09
2022-10-21T22:33:21.033Z,16.09
2022-10-21T22:38:23.247Z,16.08
2022-10-21T22:43:26.204Z,16.05
2022-10-21T22:48:27.892Z,16.03
2022-10-21T22:53:29.546Z,16.01
2022-10-21T22:58:31.609Z,16.00
2022-10-21T23:03:33.330Z,15.98
2022-10-21T23:08:35.160Z,15.97
2022-10-21T23:13:36.819Z,15.95
2022-10-21T23:18:38.481Z,15.93
2022-10-21T23:23:40.221Z,15.93
2022-10-21T23:28:42.022Z,15.92
2022-10-21T23:33:43.692Z,15.90
2022-10-21T23:38:45.417Z,15.89
2022-10-21T23:43:47.057Z,15.87
2022-10-21T23:48:48.756Z,15.85
2022-10-21T23:53:50.483Z,15.82
2022-10-21T23:58:52.814Z,15.81
